sensor_id;sensor_type;location;lat;lon;timestamp;pressure;altitude;pressure_sealevel;temperature;humidity
62201;BME280;48197;42.732;27.192;2023-04-15T00:01:58;99143.09;;;12.94;100.00
62201;BME280;48197;42.732;27.192;2023-04-15T00:04:26;99129.59;;;12.96;100.00
62201;BME280;48197;42.732;27.192;2023-04-15T00:06:52;99130.34;;;12.97;100.00
62201;BME280;48197;42.732;27.192;2023-04-15T00:09:19;99132.78;;;12.95;100.00
62201;BME280;48197;42.732;27.192;2023-04-15T00:11:47;99131.31;;;12.90;100.00
62201;BME280;48197;42.732;27.192;2023-04-15T00:14:14;99136.94;;;12.86;100.00
62201;BME280;48197;42.732;27.192;2023-04-15T00:16:41;99129.94;;;12.82;100.00
62201;BME280;48197;42.732;27.192;2023-04-15T00:19:08;99136.34;;;12.79;100.00
62201;BME280;48197;42.732;27.192;2023-04-15T00:21:35;99141.56;;;12.77;100.00
62201;BME280;48197;42.732;27.192;2023-04-15T00:24:02;99138.00;;;12.76;100.00
62201;BME280;48197;42.732;27.192;2023-04-15T00:26:28;99131.59;;;12.79;100.00
62201;BME280;48197;42.732;27.192;2023-04-15T00:28:55;99128.31;;;12.84;100.00
62201;BME280;48197;42.732;27.192;2023-04-15T00:31:23;99125.84;;;12.86;100.00
62201;BME280;48197;42.732;27.192;2023-04-15T00:33:49;99130.53;;;12.90;100.00
62201;BME280;48197;42.732;27.192;2023-04-15T00:36:16;99136.00;;;12.93;100.00
62201;BME280;48197;42.732;27.192;2023-04-15T00:38:43;99131.25;;;12.94;100.00
62201;BME280;48197;42.732;27.192;2023-04-15T00:41:10;99139.22;;;12.92;100.00
62201;BME280;48197;42.732;27.192;2023-04-15T00:43:38;99139.28;;;12.88;100.00
62201;BME280;48197;42.732;27.192;2023-04-15T00:46:04;99137.41;;;12.85;100.00
62201;BME280;48197;42.732;27.192;2023-04-15T00:48:32;99142.59;;;12.83;100.00
62201;BME280;48197;42.732;27.192;2023-04-15T00:50:59;99144.25;;;12.80;100.00
62201;BME280;48197;42.732;27.192;2023-04-15T00:53:26;99142.69;;;12.79;100.00
62201;BME280;48197;42.732;27.192;2023-04-15T00:55:52;99141.13;;;12.78;100.00
62201;BME280;48197;42.732;27.192;2023-04-15T00:58:20;99144.34;;;12.77;100.00
62201;BME280;48197;42.732;27.192;2023-04-15T01:00:47;99144.69;;;12.79;100.00
62201;BME280;48197;42.732;27.192;2023-04-15T01:03:14;99147.81;;;12.81;100.00
62201;BME280;48197;42.732;27.192;2023-04-15T01:05:40;99149.34;;;12.82;100.00
62201;BME280;48197;42.732;27.192;2023-04-15T01:08:08;99150.91;;;12.83;100.00
62201;BME280;48197;42.732;27.192;2023-04-15T01:10:35;99151.69;;;12.83;100.00
62201;BME280;48197;42.732;27.192;2023-04-15T01:13:02;99140.59;;;12.83;100.00
62201;BME280;48197;42.732;27.192;2023-04-15T01:15:30;99135.06;;;12.83;100.00
62201;BME280;48197;42.732;27.192;2023-04-15T01:17:57;99138.16;;;12.85;100.00
62201;BME280;48197;42.732;27.192;2023-04-15T01:20:24;99137.75;;;12.87;100.00
62201;BME280;48197;42.732;27.192;2023-04-15T01:22:52;99142.84;;;12.88;100.00
62201;BME280;48197;42.732;27.192;2023-04-15T01:25:32;99144.41;;;12.90;100.00
62201;BME280;48197;42.732;27.192;2023-04-15T01:27:58;99141.63;;;12.90;100.00
62201;BME280;48197;42.732;27.192;2023-04-15T01:30:24;99138.88;;;12.90;100.00
62201;BME280;48197;42.732;27.192;2023-04-15T01:32:51;99139.28;;;12.88;100.00
62201;BME280;48197;42.732;27.192;2023-04-15T01:35:19;99131.41;;;12.86;100.00
62201;BME280;48197;42.732;27.192;2023-04-15T01:37:46;99133.50;;;12.82;100.00
62201;BME280;48197;42.732;27.192;2023-04-15T01:40:13;99129.94;;;12.82;100.00
62201;BME280;48197;42.732;27.192;2023-04-15T01:42:40;99127.50;;;12.84;100.00
62201;BME280;48197;42.732;27.192;2023-04-15T01:45:07;99123.97;;;12.83;100.00
62201;BME280;48197;42.732;27.192;2023-04-15T01:47:34;99123.88;;;12.87;100.00
62201;BME280;48197;42.732;27.192;2023-04-15T01:50:00;99110.34;;;12.89;100.00
62201;BME280;48197;42.732;27.192;2023-04-15T01:52:27;99117.09;;;12.88;100.00
62201;BME280;48197;42.732;27.192;2023-04-15T01:54:54;99121.09;;;12.87;100.00
62201;BME280;48197;42.732;27.192;2023-04-15T01:57:21;99125.97;;;12.83;100.00
62201;BME280;48197;42.732;27.192;2023-04-15T01:59:48;99124.31;;;12.85;100.00
62201;BME280;48197;42.732;27.192;2023-04-15T02:02:15;99118.00;;;12.85;100.00
62201;BME280;48197;42.732;27.192;2023-04-15T02:04:42;99119.81;;;12.92;100.00
62201;BME280;48197;42.732;27.192;2023-04-15T02:07:09;99127.16;;;12.98;100.00
62201;BME280;48197;42.732;27.192;2023-04-15T02:09:36;99132.63;;;13.02;100.00
62201;BME280;48197;42.732;27.192;2023-04-15T02:12:03;99131.16;;;12.97;100.00
62201;BME280;48197;42.732;27.192;2023-04-15T02:14:30;99134.78;;;12.94;100.00
62201;BME280;48197;42.732;27.192;2023-04-15T02:16:57;99125.78;;;12.90;100.00
62201;BME280;48197;42.732;27.192;2023-04-15T02:19:33;99136.16;;;12.86;100.00
62201;BME280;48197;42.732;27.192;2023-04-15T02:22:00;99132.69;;;12.82;100.00
62201;BME280;48197;42.732;27.192;2023-04-15T02:24:27;99128.81;;;12.79;100.00
62201;BME280;48197;42.732;27.192;2023-04-15T02:26:54;99127.69;;;12.77;100.00
62201;BME280;48197;42.732;27.192;2023-04-15T02:29:21;99126.13;;;12.76;100.00
62201;BME280;48197;42.732;27.192;2023-04-15T02:31:51;99126.38;;;12.81;100.00
62201;BME280;48197;42.732;27.192;2023-04-15T02:34:18;99129.09;;;12.85;100.00
62201;BME280;48197;42.732;27.192;2023-04-15T02:36:45;99127.34;;;12.91;100.00
62201;BME280;48197;42.732;27.192;2023-04-15T02:39:13;99122.16;;;12.93;100.00
62201;BME280;48197;42.732;27.192;2023-04-15T02:41:41;99122.91;;;12.94;100.00
62201;BME280;48197;42.732;27.192;2023-04-15T02:44:08;99120.50;;;12.96;100.00
62201;BME280;48197;42.732;27.192;2023-04-15T02:46:38;99117.09;;;13.04;100.00
62201;BME280;48197;42.732;27.192;2023-04-15T02:49:06;99119.31;;;13.10;100.00
62201;BME280;48197;42.732;27.192;2023-04-15T02:51:33;99118.13;;;13.11;100.00
62201;BME280;48197;42.732;27.192;2023-04-15T02:54:00;99127.66;;;13.10;100.00
62201;BME280;48197;42.732;27.192;2023-04-15T02:56:27;99125.41;;;13.04;100.00
62201;BME280;48197;42.732;27.192;2023-04-15T02:58:53;99131.81;;;13.01;100.00
62201;BME280;48197;42.732;27.192;2023-04-15T03:01:21;99127.50;;;13.00;100.00
62201;BME280;48197;42.732;27.192;2023-04-15T03:03:48;99129.94;;;12.98;100.00
62201;BME280;48197;42.732;27.192;2023-04-15T03:06:15;99126.03;;;12.96;100.00
62201;BME280;48197;42.732;27.192;2023-04-15T03:08:42;99124.22;;;12.89;100.00
62201;BME280;48197;42.732;27.192;2023-04-15T03:11:09;99125.69;;;12.77;100.00
62201;BME280;48197;42.732;27.192;2023-04-15T03:13:36;99128.66;;;12.70;100.00
62201;BME280;48197;42.732;27.192;2023-04-15T03:16:04;99137.03;;;12.66;100.00
62201;BME280;48197;42.732;27.192;2023-04-15T03:18:31;99132.28;;;12.67;100.00
62201;BME280;48197;42.732;27.192;2023-04-15T03:20:58;99133.16;;;12.64;100.00
62201;BME280;48197;42.732;27.192;2023-04-15T03:23:25;99125.69;;;12.61;100.00
62201;BME280;48197;42.732;27.192;2023-04-15T03:25:52;99130.38;;;12.64;100.00
62201;BME280;48197;42.732;27.192;2023-04-15T03:28:21;99119.97;;;12.68;100.00
62201;BME280;48197;42.732;27.192;2023-04-15T03:30:48;99123.09;;;12.70;100.00
62201;BME280;48197;42.732;27.192;2023-04-15T03:33:15;99122.22;;;12.73;100.00
62201;BME280;48197;42.732;27.192;2023-04-15T03:35:41;99121.38;;;12.76;100.00
62201;BME280;48197;42.732;27.192;2023-04-15T03:38:08;99114.59;;;12.77;100.00
62201;BME280;48197;42.732;27.192;2023-04-15T03:40:35;99120.06;;;12.81;100.00
62201;BME280;48197;42.732;27.192;2023-04-15T03:43:02;99122.41;;;12.82;100.00
62201;BME280;48197;42.732;27.192;2023-04-15T03:45:29;99125.53;;;12.84;100.00
62201;BME280;48197;42.732;27.192;2023-04-15T03:47:56;99126.72;;;12.83;100.00
62201;BME280;48197;42.732;27.192;2023-04-15T03:50:22;99128.31;;;12.84;100.00
62201;BME280;48197;42.732;27.192;2023-04-15T03:52:49;99124.38;;;12.82;100.00
62201;BME280;48197;42.732;27.192;2023-04-15T03:55:16;99129.34;;;12.74;100.00
62201;BME280;48197;42.732;27.192;2023-04-15T03:57:43;99135.03;;;12.67;100.00
62201;BME280;48197;42.732;27.192;2023-04-15T04:00:11;99139.13;;;12.62;100.00
62201;BME280;48197;42.732;27.192;2023-04-15T04:02:38;99145.88;;;12.61;100.00
62201;BME280;48197;42.732;27.192;2023-04-15T04:05:04;99147.97;;;12.57;100.00
62201;BME280;48197;42.732;27.192;2023-04-15T04:07:31;99162.78;;;12.51;100.00
62201;BME280;48197;42.732;27.192;2023-04-15T04:09:57;99162.22;;;12.39;100.00
62201;BME280;48197;42.732;27.192;2023-04-15T04:12:24;99172.75;;;12.28;100.00
62201;BME280;48197;42.732;27.192;2023-04-15T04:14:50;99176.63;;;12.14;100.00
62201;BME280;48197;42.732;27.192;2023-04-15T04:17:17;99171.97;;;11.91;100.00
62201;BME280;48197;42.732;27.192;2023-04-15T04:19:44;99177.59;;;11.44;100.00
62201;BME280;48197;42.732;27.192;2023-04-15T04:22:10;99176.81;;;11.20;100.00
62201;BME280;48197;42.732;27.192;2023-04-15T04:24:37;99187.78;;;11.03;100.00
62201;BME280;48197;42.732;27.192;2023-04-15T04:27:03;99197.34;;;10.99;100.00
62201;BME280;48197;42.732;27.192;2023-04-15T04:29:31;99185.13;;;10.96;100.00
62201;BME280;48197;42.732;27.192;2023-04-15T04:31:57;99191.00;;;10.98;100.00
62201;BME280;48197;42.732;27.192;2023-04-15T04:34:24;99184.66;;;11.01;100.00
62201;BME280;48197;42.732;27.192;2023-04-15T04:36:51;99178.69;;;11.03;100.00
62201;BME280;48197;42.732;27.192;2023-04-15T04:39:18;99186.16;;;11.06;100.00
62201;BME280;48197;42.732;27.192;2023-04-15T04:41:45;99197.88;;;11.14;100.00
62201;BME280;48197;42.732;27.192;2023-04-15T04:44:11;99220.66;;;11.21;100.00
62201;BME280;48197;42.732;27.192;2023-04-15T04:46:38;99204.38;;;11.27;100.00
62201;BME280;48197;42.732;27.192;2023-04-15T04:49:05;99182.66;;;11.26;100.00
62201;BME280;48197;42.732;27.192;2023-04-15T04:51:31;99200.38;;;11.28;100.00
62201;BME280;48197;42.732;27.192;2023-04-15T04:53:59;99219.28;;;11.33;100.00
62201;BME280;48197;42.732;27.192;2023-04-15T04:56:26;99235.81;;;11.37;100.00
62201;BME280;48197;42.732;27.192;2023-04-15T04:58:52;99242.06;;;11.41;100.00
62201;BME280;48197;42.732;27.192;2023-04-15T05:01:18;99236.44;;;11.48;100.00
62201;BME280;48197;42.732;27.192;2023-04-15T05:03:44;99242.78;;;11.45;100.00
62201;BME280;48197;42.732;27.192;2023-04-15T05:06:11;99248.28;;;11.49;100.00
62201;BME280;48197;42.732;27.192;2023-04-15T05:08:38;99247.78;;;11.54;100.00
62201;BME280;48197;42.732;27.192;2023-04-15T05:11:06;99246.09;;;11.60;100.00
62201;BME280;48197;42.732;27.192;2023-04-15T05:13:33;99260.66;;;11.64;100.00
62201;BME280;48197;42.732;27.192;2023-04-15T05:15:59;99256.59;;;11.69;100.00
62201;BME280;48197;42.732;27.192;2023-04-15T05:18:26;99259.25;;;11.76;100.00
62201;BME280;48197;42.732;27.192;2023-04-15T05:20:53;99264.84;;;11.96;100.00
62201;BME280;48197;42.732;27.192;2023-04-15T05:23:20;99272.88;;;12.10;100.00
62201;BME280;48197;42.732;27.192;2023-04-15T05:25:47;99273.88;;;12.20;100.00
62201;BME280;48197;42.732;27.192;2023-04-15T05:28:14;99263.06;;;12.25;100.00
62201;BME280;48197;42.732;27.192;2023-04-15T05:37:03;99245.94;;;12.31;100.00
62201;BME280;48197;42.732;27.192;2023-04-15T05:39:29;99254.25;;;12.31;100.00
62201;BME280;48197;42.732;27.192;2023-04-15T05:41:57;99245.16;;;12.30;100.00
62201;BME280;48197;42.732;27.192;2023-04-15T05:44:24;99247.41;;;12.35;100.00
62201;BME280;48197;42.732;27.192;2023-04-15T05:46:51;99243.56;;;12.49;100.00
62201;BME280;48197;42.732;27.192;2023-04-15T05:49:19;99243.00;;;12.58;100.00
62201;BME280;48197;42.732;27.192;2023-04-15T05:51:46;99241.56;;;12.50;100.00
62201;BME280;48197;42.732;27.192;2023-04-15T05:54:12;99248.13;;;12.39;100.00
62201;BME280;48197;42.732;27.192;2023-04-15T05:56:39;99246.22;;;12.36;100.00
62201;BME280;48197;42.732;27.192;2023-04-15T05:59:06;99235.56;;;12.35;100.00
62201;BME280;48197;42.732;27.192;2023-04-15T06:01:34;99234.28;;;12.39;100.00
62201;BME280;48197;42.732;27.192;2023-04-15T06:04:01;99238.09;;;12.45;100.00
62201;BME280;48197;42.732;27.192;2023-04-15T06:06:28;99229.28;;;12.51;100.00
62201;BME280;48197;42.732;27.192;2023-04-15T06:08:54;99229.31;;;12.67;100.00
62201;BME280;48197;42.732;27.192;2023-04-15T06:11:20;99230.47;;;12.86;100.00
62201;BME280;48197;42.732;27.192;2023-04-15T06:13:47;99241.03;;;12.75;100.00
62201;BME280;48197;42.732;27.192;2023-04-15T06:16:13;99254.94;;;12.55;100.00
62201;BME280;48197;42.732;27.192;2023-04-15T06:18:40;99256.03;;;12.41;100.00
62201;BME280;48197;42.732;27.192;2023-04-15T06:21:05;99262.06;;;12.36;100.00
62201;BME280;48197;42.732;27.192;2023-04-15T06:23:35;99264.97;;;12.29;100.00
62201;BME280;48197;42.732;27.192;2023-04-15T06:26:02;99271.38;;;12.25;100.00
62201;BME280;48197;42.732;27.192;2023-04-15T06:28:29;99277.69;;;12.26;100.00
62201;BME280;48197;42.732;27.192;2023-04-15T06:30:56;99292.34;;;12.26;100.00
62201;BME280;48197;42.732;27.192;2023-04-15T06:33:24;99298.53;;;12.34;100.00
62201;BME280;48197;42.732;27.192;2023-04-15T06:35:51;99291.75;;;12.35;100.00
62201;BME280;48197;42.732;27.192;2023-04-15T06:38:18;99304.56;;;12.29;100.00
62201;BME280;48197;42.732;27.192;2023-04-15T06:40:45;99304.13;;;12.31;100.00
62201;BME280;48197;42.732;27.192;2023-04-15T06:43:11;99300.66;;;12.46;100.00
62201;BME280;48197;42.732;27.192;2023-04-15T06:45:38;99294.47;;;12.59;100.00
62201;BME280;48197;42.732;27.192;2023-04-15T06:48:05;99305.03;;;12.64;100.00
62201;BME280;48197;42.732;27.192;2023-04-15T06:50:31;99311.22;;;12.72;100.00
62201;BME280;48197;42.732;27.192;2023-04-15T06:52:59;99327.16;;;12.68;100.00
62201;BME280;48197;42.732;27.192;2023-04-15T06:55:25;99316.97;;;12.61;100.00
62201;BME280;48197;42.732;27.192;2023-04-15T06:57:52;99327.06;;;12.71;100.00
62201;BME280;48197;42.732;27.192;2023-04-15T07:00:19;99332.38;;;12.82;100.00
62201;BME280;48197;42.732;27.192;2023-04-15T07:02:46;99343.44;;;13.02;100.00
62201;BME280;48197;42.732;27.192;2023-04-15T07:05:13;99359.41;;;13.34;100.00
62201;BME280;48197;42.732;27.192;2023-04-15T07:07:40;99353.59;;;13.45;100.00
62201;BME280;48197;42.732;27.192;2023-04-15T07:10:08;99354.13;;;13.73;100.00
62201;BME280;48197;42.732;27.192;2023-04-15T07:12:35;99353.72;;;14.03;100.00
62201;BME280;48197;42.732;27.192;2023-04-15T07:15:02;99351.06;;;14.29;100.00
62201;BME280;48197;42.732;27.192;2023-04-15T07:17:29;99346.47;;;14.52;100.00
62201;BME280;48197;42.732;27.192;2023-04-15T07:19:55;99336.13;;;14.52;100.00
62201;BME280;48197;42.732;27.192;2023-04-15T07:22:22;99323.72;;;14.27;100.00
62201;BME280;48197;42.732;27.192;2023-04-15T07:24:49;99324.38;;;14.02;100.00
62201;BME280;48197;42.732;27.192;2023-04-15T07:27:16;99332.03;;;13.98;100.00
62201;BME280;48197;42.732;27.192;2023-04-15T07:29:43;99318.06;;;14.02;100.00
62201;BME280;48197;42.732;27.192;2023-04-15T07:32:09;99317.31;;;13.85;100.00
62201;BME280;48197;42.732;27.192;2023-04-15T07:34:36;99313.50;;;13.62;100.00
62201;BME280;48197;42.732;27.192;2023-04-15T07:37:03;99326.34;;;13.40;100.00
62201;BME280;48197;42.732;27.192;2023-04-15T07:39:30;99360.31;;;13.27;100.00
62201;BME280;48197;42.732;27.192;2023-04-15T07:41:56;99370.94;;;13.13;100.00
62201;BME280;48197;42.732;27.192;2023-04-15T07:44:25;99375.44;;;13.06;100.00
62201;BME280;48197;42.732;27.192;2023-04-15T07:46:52;99396.34;;;13.11;100.00
62201;BME280;48197;42.732;27.192;2023-04-15T07:49:18;99390.97;;;13.20;100.00
62201;BME280;48197;42.732;27.192;2023-04-15T07:51:47;99395.69;;;13.23;100.00
62201;BME280;48197;42.732;27.192;2023-04-15T07:54:14;99393.41;;;13.38;100.00
62201;BME280;48197;42.732;27.192;2023-04-15T07:56:41;99367.81;;;13.47;100.00
62201;BME280;48197;42.732;27.192;2023-04-15T07:59:08;99369.72;;;13.50;100.00
62201;BME280;48197;42.732;27.192;2023-04-15T08:01:35;99390.19;;;13.56;100.00
62201;BME280;48197;42.732;27.192;2023-04-15T08:04:00;99393.69;;;13.60;100.00
62201;BME280;48197;42.732;27.192;2023-04-15T08:06:27;99399.94;;;13.64;100.00
62201;BME280;48197;42.732;27.192;2023-04-15T08:08:53;99392.56;;;13.58;100.00
62201;BME280;48197;42.732;27.192;2023-04-15T08:11:20;99397.22;;;13.61;100.00
62201;BME280;48197;42.732;27.192;2023-04-15T08:13:48;99399.84;;;13.68;100.00
62201;BME280;48197;42.732;27.192;2023-04-15T08:16:19;99396.44;;;13.93;100.00
62201;BME280;48197;42.732;27.192;2023-04-15T08:18:46;99398.69;;;14.15;100.00
62201;BME280;48197;42.732;27.192;2023-04-15T08:21:13;99399.78;;;14.34;100.00
62201;BME280;48197;42.732;27.192;2023-04-15T08:23:41;99399.91;;;14.59;100.00
62201;BME280;48197;42.732;27.192;2023-04-15T08:26:08;99390.28;;;14.77;100.00
62201;BME280;48197;42.732;27.192;2023-04-15T08:28:36;99388.19;;;14.52;100.00
62201;BME280;48197;42.732;27.192;2023-04-15T08:31:03;99391.28;;;14.24;100.00
62201;BME280;48197;42.732;27.192;2023-04-15T08:33:30;99392.06;;;14.25;100.00
62201;BME280;48197;42.732;27.192;2023-04-15T08:35:56;99376.75;;;14.33;100.00
62201;BME280;48197;42.732;27.192;2023-04-15T08:38:23;99389.88;;;14.33;100.00
62201;BME280;48197;42.732;27.192;2023-04-15T08:40:50;99406.00;;;14.08;100.00
62201;BME280;48197;42.732;27.192;2023-04-15T08:43:23;99420.41;;;14.03;100.00
62201;BME280;48197;42.732;27.192;2023-04-15T08:45:54;99430.66;;;13.90;100.00
62201;BME280;48197;42.732;27.192;2023-04-15T08:48:21;99417.66;;;13.87;100.00
62201;BME280;48197;42.732;27.192;2023-04-15T08:50:49;99419.63;;;14.03;100.00
62201;BME280;48197;42.732;27.192;2023-04-15T08:53:15;99421.00;;;14.27;100.00
62201;BME280;48197;42.732;27.192;2023-04-15T08:55:43;99416.75;;;14.68;100.00
62201;BME280;48197;42.732;27.192;2023-04-15T08:58:13;99424.84;;;15.05;100.00
62201;BME280;48197;42.732;27.192;2023-04-15T09:00:40;99426.00;;;15.20;100.00
62201;BME280;48197;42.732;27.192;2023-04-15T09:03:07;99417.06;;;15.25;100.00
62201;BME280;48197;42.732;27.192;2023-04-15T09:05:35;99419.00;;;15.67;100.00
62201;BME280;48197;42.732;27.192;2023-04-15T09:08:01;99405.59;;;16.13;100.00
62201;BME280;48197;42.732;27.192;2023-04-15T09:10:28;99393.19;;;16.71;100.00
62201;BME280;48197;42.732;27.192;2023-04-15T09:12:55;99398.19;;;17.29;100.00
62201;BME280;48197;42.732;27.192;2023-04-15T09:15:23;99397.75;;;17.81;100.00
62201;BME280;48197;42.732;27.192;2023-04-15T09:17:50;99397.25;;;18.78;100.00
62201;BME280;48197;42.732;27.192;2023-04-15T09:20:16;99394.63;;;19.26;100.00
62201;BME280;48197;42.732;27.192;2023-04-15T09:22:46;99391.72;;;19.11;100.00
62201;BME280;48197;42.732;27.192;2023-04-15T09:27:58;99390.25;;;18.83;100.00
62201;BME280;48197;42.732;27.192;2023-04-15T09:30:26;99386.34;;;18.71;100.00
62201;BME280;48197;42.732;27.192;2023-04-15T09:32:53;99384.63;;;18.64;100.00
62201;BME280;48197;42.732;27.192;2023-04-15T09:35:19;99387.88;;;18.90;100.00
62201;BME280;48197;42.732;27.192;2023-04-15T09:37:48;99389.13;;;18.98;100.00
62201;BME280;48197;42.732;27.192;2023-04-15T10:11:43;99377.78;;;18.01;100.00
62201;BME280;48197;42.732;27.192;2023-04-15T10:14:10;99377.63;;;17.95;100.00
62201;BME280;48197;42.732;27.192;2023-04-15T10:16:38;99379.03;;;18.09;100.00
62201;BME280;48197;42.732;27.192;2023-04-15T10:19:08;99360.88;;;18.32;100.00
62201;BME280;48197;42.732;27.192;2023-04-15T10:21:35;99364.59;;;18.20;100.00
62201;BME280;48197;42.732;27.192;2023-04-15T10:24:02;99362.91;;;18.31;100.00
62201;BME280;48197;42.732;27.192;2023-04-15T10:26:29;99369.59;;;18.52;100.00
62201;BME280;48197;42.732;27.192;2023-04-15T10:28:56;99369.09;;;18.54;100.00
62201;BME280;48197;42.732;27.192;2023-04-15T10:31:23;99369.88;;;18.17;100.00
62201;BME280;48197;42.732;27.192;2023-04-15T10:33:50;99370.97;;;18.02;100.00
62201;BME280;48197;42.732;27.192;2023-04-15T10:36:18;99360.09;;;18.13;100.00
62201;BME280;48197;42.732;27.192;2023-04-15T10:38:45;99356.53;;;18.40;100.00
62201;BME280;48197;42.732;27.192;2023-04-15T10:41:22;99359.91;;;18.72;100.00
62201;BME280;48197;42.732;27.192;2023-04-15T10:43:59;99365.22;;;18.79;100.00
62201;BME280;48197;42.732;27.192;2023-04-15T10:46:35;99365.50;;;18.72;100.00
62201;BME280;48197;42.732;27.192;2023-04-15T10:51:36;99359.50;;;19.16;100.00
62201;BME280;48197;42.732;27.192;2023-04-15T10:54:16;99364.53;;;19.45;100.00
62201;BME280;48197;42.732;27.192;2023-04-15T10:57:38;99361.31;;;19.71;100.00
62201;BME280;48197;42.732;27.192;2023-04-15T11:00:01;99353.31;;;20.03;100.00
62201;BME280;48197;42.732;27.192;2023-04-15T11:02:43;99359.38;;;20.25;100.00
62201;BME280;48197;42.732;27.192;2023-04-15T11:05:10;99360.34;;;20.22;100.00
62201;BME280;48197;42.732;27.192;2023-04-15T11:10:48;99365.66;;;20.74;100.00
62201;BME280;48197;42.732;27.192;2023-04-15T11:13:04;99361.72;;;20.95;100.00
62201;BME280;48197;42.732;27.192;2023-04-15T11:15:42;99363.22;;;21.26;100.00
62201;BME280;48197;42.732;27.192;2023-04-15T11:18:15;99354.50;;;21.24;100.00
62201;BME280;48197;42.732;27.192;2023-04-15T11:20:43;99360.22;;;21.45;100.00
62201;BME280;48197;42.732;27.192;2023-04-15T11:26:03;99354.72;;;22.12;100.00
62201;BME280;48197;42.732;27.192;2023-04-15T11:28:49;99348.13;;;21.94;100.00
62201;BME280;48197;42.732;27.192;2023-04-15T11:31:16;99337.56;;;22.10;100.00
62201;BME280;48197;42.732;27.192;2023-04-15T11:33:53;99339.69;;;22.15;100.00
62201;BME280;48197;42.732;27.192;2023-04-15T11:36:30;99340.50;;;22.21;100.00
62201;BME280;48197;42.732;27.192;2023-04-15T11:39:00;99339.19;;;22.63;100.00
62201;BME280;48197;42.732;27.192;2023-04-15T11:41:26;99333.94;;;22.76;95.72
62201;BME280;48197;42.732;27.192;2023-04-15T11:43:52;99330.13;;;22.79;98.43
62201;BME280;48197;42.732;27.192;2023-04-15T11:46:19;99324.91;;;22.98;95.05
62201;BME280;48197;42.732;27.192;2023-04-15T11:48:47;99334.13;;;22.99;99.08
62201;BME280;48197;42.732;27.192;2023-04-15T11:51:13;99328.81;;;23.38;96.71
62201;BME280;48197;42.732;27.192;2023-04-15T11:53:43;99326.28;;;23.89;95.28
62201;BME280;48197;42.732;27.192;2023-04-15T11:56:20;99323.22;;;23.93;95.41
62201;BME280;48197;42.732;27.192;2023-04-15T11:58:47;99331.53;;;24.13;95.24
62201;BME280;48197;42.732;27.192;2023-04-15T12:01:15;99329.84;;;24.55;95.01
62201;BME280;48197;42.732;27.192;2023-04-15T12:03:44;99327.56;;;24.54;87.45
62201;BME280;48197;42.732;27.192;2023-04-15T12:06:11;99326.50;;;24.45;90.56
62201;BME280;48197;42.732;27.192;2023-04-15T12:08:51;99321.41;;;24.72;91.90
62201;BME280;48197;42.732;27.192;2023-04-15T12:13:56;99315.50;;;24.98;90.13
62201;BME280;48197;42.732;27.192;2023-04-15T12:16:23;99318.84;;;24.80;81.62
62201;BME280;48197;42.732;27.192;2023-04-15T12:18:54;99316.53;;;24.84;84.67
62201;BME280;48197;42.732;27.192;2023-04-15T12:21:31;99309.56;;;25.19;87.53
62201;BME280;48197;42.732;27.192;2023-04-15T12:24:03;99303.41;;;25.37;83.99
62201;BME280;48197;42.732;27.192;2023-04-15T12:26:45;99299.75;;;25.54;84.66
62201;BME280;48197;42.732;27.192;2023-04-15T12:29:12;99297.50;;;25.13;76.18
62201;BME280;48197;42.732;27.192;2023-04-15T12:34:18;99302.13;;;25.10;76.89
62201;BME280;48197;42.732;27.192;2023-04-15T12:36:50;99294.94;;;25.32;76.81
62201;BME280;48197;42.732;27.192;2023-04-15T12:39:17;99289.28;;;25.37;76.45
62201;BME280;48197;42.732;27.192;2023-04-15T12:41:43;99294.34;;;25.61;80.73
62201;BME280;48197;42.732;27.192;2023-04-15T12:44:10;99296.63;;;25.74;74.30
62201;BME280;48197;42.732;27.192;2023-04-15T12:46:37;99293.81;;;24.16;80.31
62201;BME280;48197;42.732;27.192;2023-04-15T12:49:04;99289.00;;;23.25;94.39
62201;BME280;48197;42.732;27.192;2023-04-15T12:51:30;99290.19;;;22.81;92.80
62201;BME280;48197;42.732;27.192;2023-04-15T12:53:57;99289.44;;;22.54;93.00
62201;BME280;48197;42.732;27.192;2023-04-15T12:56:23;99286.91;;;22.56;87.58
62201;BME280;48197;42.732;27.192;2023-04-15T12:58:50;99286.72;;;22.97;81.07
62201;BME280;48197;42.732;27.192;2023-04-15T13:01:17;99285.56;;;23.47;75.62
62201;BME280;48197;42.732;27.192;2023-04-15T13:03:43;99291.88;;;23.36;73.18
62201;BME280;48197;42.732;27.192;2023-04-15T13:06:10;99287.59;;;23.47;76.91
62201;BME280;48197;42.732;27.192;2023-04-15T13:08:37;99286.38;;;23.59;77.45
62201;BME280;48197;42.732;27.192;2023-04-15T13:11:03;99295.66;;;23.22;78.62
62201;BME280;48197;42.732;27.192;2023-04-15T13:13:30;99294.88;;;22.90;81.36
62201;BME280;48197;42.732;27.192;2023-04-15T13:15:57;99300.25;;;22.35;84.26
62201;BME280;48197;42.732;27.192;2023-04-15T13:18:24;99300.94;;;22.04;84.96
62201;BME280;48197;42.732;27.192;2023-04-15T13:20:50;99300.09;;;21.98;84.80
62201;BME280;48197;42.732;27.192;2023-04-15T13:23:17;99290.00;;;23.65;80.65
62201;BME280;48197;42.732;27.192;2023-04-15T13:25:44;99296.50;;;24.54;79.25
62201;BME280;48197;42.732;27.192;2023-04-15T13:28:11;99289.03;;;25.13;79.79
62201;BME280;48197;42.732;27.192;2023-04-15T13:30:38;99284.59;;;25.57;80.86
62201;BME280;48197;42.732;27.192;2023-04-15T13:33:05;99280.56;;;24.90;83.61
62201;BME280;48197;42.732;27.192;2023-04-15T13:35:31;99281.53;;;24.31;85.35
62201;BME280;48197;42.732;27.192;2023-04-15T13:37:58;99280.09;;;23.38;86.98